メインページ
METAR-TAF:

METAR-TAF

空港 :

Stony Rapids, サスカチュワン州, カナダ

緯度: 59-15N, 経度: 105-50W, 海抜: 250m

現時点の気象観測

当レポートは32分前の04:00(UTC)に作成
西/南西の風 2kt
気温 -6°C
湿度 100%
気圧 1014 hPa
視程: 14.5km
高度400ftの曇り

METAR: CYSF 270400Z AUTO 25002KT 9SM OVC004 M06/M06 A2994 RMK SLP162

時間: 22:32 (04:32 UTC)

予報

当レポートは31分前の04:01(UTC)に作成
予報は27日の 04時(UTC)から 27日の 12時(UTC)まで有効
変向風 3kt
視程: 10km
高度700ftの曇り
27日の 04時(UTC)から 27日の 12時(UTC)まで一時的に
視程: 4.8km
高度400ftの曇り
小雪, 靄

TAF: CYSF 270401Z 2704/2712 VRB03KT P6SM OVC007 TEMPO 2704/2712 3SM -SN BR OVC004 RMK FCST BASED ON AUTO OBS. NXT FCST BY 270600Z

4,000以上の空港の気象観測と天気予報(METAR報とTAF報)

利用可能な観測所は地図上に黄色い丸と赤い丸で示す。

丸の上にカーソルを重ねると観測所名を参照できる。

次にクリックすると気象観測と天気予報を参照できる。

マップの切り替え:黒色「×」印の緑ボタンをクリックして拡大、「-」印の緑ボタンをクリックして縮小、緑色の三角印をクリックして隣りの地図に切り替え


METAR-TAF: